Time;durP1;ratioP1;P1;durP2;ratioP2;P2;SDS_P1;SDS_P2;PMS_P1;PMS_P2;Temp;Humidity;BMP_temperature;BMP_pressure;BME280_temperature;BME280_humidity;BME280_pressure;Samples;Min_cycle;Max_cycle;Signal;HPM_P1;HPM_P2
2022/08/30 00:01:53;;;;;;;;;;;;;;;16.15;59.77;100975.34;5011680;28;19929;-72
2022/08/30 00:05:00;;;;;;;;;;;;;;;16.11;60.03;100961.47;5011595;28;20431;-72
2022/08/30 00:08:03;;;;;;;;;;;;;;;16.18;59.80;100964.56;5011611;28;19924;-72
2022/08/30 00:11:08;;;;;;;;;;;;;;;16.13;59.68;100970.16;5011594;28;19923;-72
2022/08/30 00:14:11;;;;;;;;;;;;;;;15.94;60.40;100975.84;5011507;28;19924;-72
2022/08/30 00:17:14;;;;;;;;;;;;;;;15.94;60.66;100975.84;5011783;28;20353;-72
2022/08/30 00:20:20;;;;;;;;;;;;;;;15.94;60.29;100981.09;5011738;28;19984;-72
2022/08/30 00:23:24;;;;;;;;;;;;;;;15.74;61.06;100978.97;5011619;28;19980;-72
2022/08/30 00:26:27;;;;;;;;;;;;;;;15.91;60.66;100978.69;5011295;28;19988;-72
2022/08/30 00:29:30;;;;;;;;;;;;;;;15.88;60.87;100984.16;5010077;28;19928;-73
2022/08/30 00:32:33;;;;;;;;;;;;;;;15.87;60.88;100979.84;5010763;28;19933;-73
2022/08/30 00:35:38;;;;;;;;;;;;;;;15.88;61.13;100981.50;5011550;28;19987;-72
2022/08/30 00:38:44;;;;;;;;;;;;;;;15.81;61.35;100974.97;5011507;28;19923;-72
2022/08/30 00:41:47;;;;;;;;;;;;;;;15.72;61.66;100976.41;5011505;28;19972;-73
2022/08/30 00:44:51;;;;;;;;;;;;;;;15.77;61.31;100981.41;5011114;28;19924;-73
2022/08/30 00:47:54;;;;;;;;;;;;;;;15.86;61.05;100980.78;5010703;28;19925;-73
2022/08/30 00:51:00;;;;;;;;;;;;;;;15.73;61.03;100980.78;5011056;28;20301;-73
2022/08/30 00:54:04;;;;;;;;;;;;;;;15.76;61.37;100990.25;5010649;28;19971;-73
2022/08/30 00:57:09;;;;;;;;;;;;;;;15.75;61.16;101009.66;5010892;28;19927;-73
2022/08/30 01:00:13;;;;;;;;;;;;;;;15.62;61.81;100998.19;5011075;28;19979;-73
2022/08/30 01:03:16;;;;;;;;;;;;;;;15.57;61.82;100991.44;5011243;28;19967;-73
2022/08/30 01:06:19;;;;;;;;;;;;;;;15.43;62.37;100985.38;5010709;28;19924;-73
2022/08/30 01:09:23;;;;;;;;;;;;;;;15.45;62.10;100986.97;5010555;28;20337;-73
2022/08/30 01:12:28;;;;;;;;;;;;;;;15.47;61.63;100990.34;5010048;28;19920;-73
2022/08/30 01:15:33;;;;;;;;;;;;;;;15.32;61.54;100996.63;5009552;28;19924;-73
2022/08/30 01:18:37;;;;;;;;;;;;;;;15.26;61.98;100997.03;5010506;28;19940;-73
2022/08/30 01:21:49;;;;;;;;;;;;;;;15.00;63.30;100994.25;5010796;28;19928;-72
2022/08/30 01:24:54;;;;;;;;;;;;;;;14.99;63.12;101004.88;5010385;28;19925;-73
2022/08/30 01:28:03;;;;;;;;;;;;;;;14.97;62.71;101006.78;5010883;28;19967;-73
2022/08/30 01:31:07;;;;;;;;;;;;;;;15.26;61.96;101007.56;5010601;28;19940;-73
2022/08/30 01:34:11;;;;;;;;;;;;;;;14.96;62.64;101003.28;5010121;28;20954;-72
2022/08/30 01:37:16;;;;;;;;;;;;;;;15.12;62.10;101005.78;5009936;28;19924;-73
2022/08/30 01:40:19;;;;;;;;;;;;;;;15.22;61.89;101006.03;5009721;28;19932;-73
2022/08/30 01:43:24;;;;;;;;;;;;;;;15.07;62.38;101014.00;5009663;28;19928;-73
2022/08/30 01:46:29;;;;;;;;;;;;;;;15.03;62.69;101007.25;5009893;28;19925;-73
2022/08/30 01:49:32;;;;;;;;;;;;;;;15.04;62.47;101008.91;5010025;28;19928;-72
2022/08/30 01:52:35;;;;;;;;;;;;;;;14.97;62.71;101006.78;5010183;28;19924;-71
2022/08/30 01:55:40;;;;;;;;;;;;;;;14.98;62.48;101009.31;5010076;28;19920;-73
2022/08/30 01:58:43;;;;;;;;;;;;;;;14.83;62.68;101005.00;5009545;28;19932;-73
2022/08/30 02:01:46;;;;;;;;;;;;;;;14.77;63.01;101010.63;5009320;28;20013;-73
2022/08/30 02:04:50;;;;;;;;;;;;;;;14.85;63.02;101008.38;5009481;28;19923;-73
2022/08/30 02:07:56;;;;;;;;;;;;;;;14.84;62.95;101006.72;5009320;28;19971;-73
2022/08/30 02:11:00;;;;;;;;;;;;;;;14.67;63.28;101007.72;4987841;28;19924;-72
2022/08/30 02:14:04;;;;;;;;;;;;;;;14.78;63.01;101010.56;4990167;28;19925;-73
2022/08/30 02:17:10;;;;;;;;;;;;;;;14.78;63.31;101000.03;4989609;28;20567;-72
2022/08/30 02:20:13;;;;;;;;;;;;;;;14.79;63.42;101006.13;4989571;28;19931;-72
2022/08/30 02:23:16;;;;;;;;;;;;;;;14.90;63.17;101014.22;4989727;28;20345;-72
2022/08/30 02:26:20;;;;;;;;;;;;;;;14.91;63.09;101012.44;4989822;28;19971;-72
2022/08/30 02:29:24;;;;;;;;;;;;;;;14.91;63.03;101009.78;4989283;28;19984;-73
2022/08/30 02:32:27;;;;;;;;;;;;;;;14.92;63.24;101009.69;4989003;28;19972;-72
2022/08/30 02:35:30;;;;;;;;;;;;;;;14.94;63.17;101007.81;4990081;28;19995;-73
2022/08/30 02:38:34;;;;;;;;;;;;;;;14.79;63.93;100998.22;4989951;28;20009;-73
2022/08/30 02:41:38;;;;;;;;;;;;;;;14.84;63.82;100990.91;4989038;28;19937;-73
2022/08/30 02:44:41;;;;;;;;;;;;;;;14.89;63.79;100988.81;4989094;28;20025;-72
2022/08/30 02:47:44;;;;;;;;;;;;;;;14.69;64.02;100989.22;4989537;28;19925;-72
2022/08/30 02:50:48;;;;;;;;;;;;;;;14.70;64.18;100997.00;4989306;28;19925;-72
2022/08/30 02:53:51;;;;;;;;;;;;;;;14.62;64.93;100997.50;4990002;28;19925;-73
2022/08/30 02:56:55;;;;;;;;;;;;;;;14.64;65.00;100993.00;4989551;28;19925;-73
2022/08/30 02:59:58;;;;;;;;;;;;;;;14.63;64.26;100993.91;4989206;28;19924;-73
2022/08/30 03:03:02;;;;;;;;;;;;;;;14.64;63.67;100986.88;4989364;28;19969;-73
2022/08/30 03:06:06;;;;;;;;;;;;;;;14.57;63.90;100983.75;4988048;28;20286;-73
2022/08/30 03:09:09;;;;;;;;;;;;;;;14.60;63.57;100975.69;4988116;28;20397;-73
2022/08/30 03:12:12;;;;;;;;;;;;;;;14.59;63.82;100976.63;4988786;28;20041;-73
2022/08/30 03:15:16;;;;;;;;;;;;;;;14.60;63.36;100982.72;5002942;28;19924;-73
2022/08/30 03:18:19;;;;;;;;;;;;;;;14.49;63.41;100974.66;5008763;28;20309;-72
2022/08/30 03:21:22;;;;;;;;;;;;;;;14.40;63.84;100976.88;5007604;28;19971;-73
2022/08/30 03:24:25;;;;;;;;;;;;;;;14.28;64.17;100982.88;5008786;28;20003;-72
2022/08/30 03:27:28;;;;;;;;;;;;;;;14.24;64.51;100985.81;5009226;28;20008;-73
2022/08/30 03:30:33;;;;;;;;;;;;;;;14.26;64.31;100991.78;5008929;28;19959;-73
2022/08/30 03:33:40;;;;;;;;;;;;;;;14.23;64.23;100989.34;5008546;28;19929;-73
2022/08/30 03:36:43;;;;;;;;;;;;;;;14.23;64.32;100990.22;5008787;28;19967;-73
2022/08/30 03:39:47;;;;;;;;;;;;;;;14.25;64.24;100984.84;5011895;28;19924;-73
2022/08/30 03:42:51;;;;;;;;;;;;;;;14.27;63.89;100985.63;5012035;28;20396;-73
2022/08/30 03:45:54;;;;;;;;;;;;;;;14.17;64.45;100986.16;5005904;28;19925;-73
2022/08/30 03:48:57;;;;;;;;;;;;;;;13.95;65.60;100985.75;4991495;28;19978;-73
2022/08/30 03:52:00;;;;;;;;;;;;;;;14.11;64.66;100972.53;4992843;28;19940;-73
2022/08/30 03:55:04;;;;;;;;;;;;;;;14.19;64.54;100978.19;4992690;28;19986;-72
2022/08/30 03:58:07;;;;;;;;;;;;;;;14.12;64.62;100984.75;4992460;28;19980;-72
2022/08/30 04:01:10;;;;;;;;;;;;;;;13.93;65.58;100987.63;4991959;28;19933;-72
2022/08/30 04:04:16;;;;;;;;;;;;;;;13.92;65.42;100991.19;4991992;28;19967;-72
2022/08/30 04:07:20;;;;;;;;;;;;;;;14.02;65.06;100991.50;4993880;28;20003;-73
2022/08/30 04:10:23;;;;;;;;;;;;;;;13.92;65.25;100986.78;5008540;28;20459;-73
2022/08/30 04:13:27;;;;;;;;;;;;;;;13.83;65.66;100992.56;5008698;28;19925;-73
2022/08/30 04:16:30;;;;;;;;;;;;;;;13.90;65.45;100988.63;4992181;28;19984;-74
2022/08/30 04:19:33;;;;;;;;;;;;;;;13.96;65.01;100995.31;4999751;28;19925;-73
2022/08/30 04:22:37;;;;;;;;;;;;;;;13.87;65.29;100993.22;5011802;28;19929;-73
2022/08/30 04:25:44;;;;;;;;;;;;;;;13.65;66.39;100994.47;5006781;28;20289;-79
2022/08/30 04:28:52;;;;;;;;;;;;;;;13.62;66.65;100997.28;5015282;28;19932;-72
2022/08/30 04:31:55;;;;;;;;;;;;;;;13.41;67.57;100990.63;5011244;28;19927;-73
2022/08/30 04:35:02;;;;;;;;;;;;;;;13.43;67.49;100994.88;5011397;28;19929;-74
2022/08/30 04:38:05;;;;;;;;;;;;;;;13.26;67.97;100992.34;5011535;28;19991;-73
2022/08/30 04:41:10;;;;;;;;;;;;;;;13.04;69.14;100995.28;5010588;28;19948;-75
2022/08/30 04:44:14;;;;;;;;;;;;;;;12.96;69.48;101000.97;5010528;28;19935;-75
2022/08/30 04:47:17;;;;;;;;;;;;;;;13.15;67.79;100999.94;5008308;28;19924;-74
2022/08/30 04:50:21;;;;;;;;;;;;;;;13.21;68.20;101003.09;5007814;28;19979;-74
2022/08/30 04:53:24;;;;;;;;;;;;;;;13.08;68.94;101004.69;5009685;28;19978;-72
2022/08/30 04:56:27;;;;;;;;;;;;;;;12.95;69.44;101008.91;5008342;28;19960;-73
2022/08/30 04:59:32;;;;;;;;;;;;;;;13.00;69.41;101012.97;5009723;28;20010;-77
2022/08/30 05:02:38;;;;;;;;;;;;;;;12.99;69.30;101013.06;5002094;28;19964;-73
2022/08/30 05:05:45;;;;;;;;;;;;;;;13.03;68.78;101022.47;4989385;28;20405;-73
2022/08/30 05:08:52;;;;;;;;;;;;;;;13.04;68.76;101019.75;4989584;28;20377;-72
2022/08/30 05:11:55;;;;;;;;;;;;;;;13.20;68.18;101014.50;4988420;28;20429;-74
2022/08/30 05:14:58;;;;;;;;;;;;;;;13.30;68.13;101019.28;5001697;28;20014;-72
2022/08/30 05:18:01;;;;;;;;;;;;;;;13.32;68.12;101022.66;5010569;28;19923;-74
2022/08/30 05:21:07;;;;;;;;;;;;;;;13.20;68.53;101018.91;5009476;28;20456;-69
2022/08/30 05:24:11;;;;;;;;;;;;;;;13.18;68.66;101028.66;5008743;28;20016;-73
2022/08/30 05:27:14;;;;;;;;;;;;;;;13.02;69.58;101031.28;5007961;28;19980;-72
2022/08/30 05:30:17;;;;;;;;;;;;;;;13.01;69.47;101024.31;5008952;28;20274;-73
2022/08/30 05:33:21;;;;;;;;;;;;;;;13.12;69.02;101042.97;5008995;28;19929;-71
2022/08/30 05:36:25;;;;;;;;;;;;;;;13.19;69.15;101041.69;5009546;28;20297;-71
2022/08/30 05:39:28;;;;;;;;;;;;;;;13.50;68.27;101047.91;5009270;28;19916;-71
2022/08/30 05:42:32;;;;;;;;;;;;;;;13.44;68.21;101048.25;5009720;28;19996;-73
2022/08/30 05:45:36;;;;;;;;;;;;;;;13.33;68.82;101045.38;5018348;28;19924;-70
2022/08/30 05:48:39;;;;;;;;;;;;;;;13.34;68.78;101053.19;5028687;28;19924;-73
2022/08/30 05:51:43;;;;;;;;;;;;;;;13.50;68.50;101047.91;5028934;28;19924;-72
2022/08/30 05:54:51;;;;;;;;;;;;;;;13.65;67.69;101052.28;5029592;28;19928;-72
2022/08/30 05:57:53;;;;;;;;;;;;;;;13.70;67.26;101045.00;5029627;28;20486;-72
2022/08/30 06:00:57;;;;;;;;;;;;;;;13.89;66.88;101041.31;5028915;28;19991;-73
2022/08/30 06:04:01;;;;;;;;;;;;;;;13.89;66.94;101028.19;5029485;28;19928;-73
2022/08/30 06:07:05;;;;;;;;;;;;;;;13.85;67.28;101034.56;5029930;28;20351;-73
2022/08/30 06:10:08;;;;;;;;;;;;;;;14.02;66.87;101026.50;5013199;28;19976;-75
2022/08/30 06:13:12;;;;;;;;;;;;;;;14.16;65.95;101029.16;5008888;28;19978;-72
2022/08/30 06:16:17;;;;;;;;;;;;;;;14.18;65.63;101019.41;5008844;28;19924;-73
2022/08/30 06:19:20;;;;;;;;;;;;;;;14.33;64.79;101011.56;5008306;28;20095;-73
2022/08/30 06:22:23;;;;;;;;;;;;;;;14.37;64.63;101013.06;5008051;28;19929;-73
2022/08/30 06:25:28;;;;;;;;;;;;;;;14.55;64.77;101016.38;5008884;28;19924;-73
2022/08/30 06:28:31;;;;;;;;;;;;;;;14.61;64.48;101022.13;5009594;28;20459;-73
2022/08/30 06:31:36;;;;;;;;;;;;;;;14.56;64.37;101015.44;5009641;28;19939;-74
2022/08/30 06:34:39;;;;;;;;;;;;;;;14.75;63.68;101023.91;5009343;28;19928;-69
2022/08/30 06:37:42;;;;;;;;;;;;;;;14.95;63.31;101016.56;5009323;28;20396;-70
2022/08/30 06:40:45;;;;;;;;;;;;;;;14.97;62.98;101028.69;5008905;28;20017;-69
2022/08/30 06:43:48;;;;;;;;;;;;;;;15.04;62.92;101029.16;5009283;28;19924;-69
2022/08/30 06:46:52;;;;;;;;;;;;;;;15.17;62.48;101030.06;5009519;28;19983;-70
2022/08/30 06:49:56;;;;;;;;;;;;;;;15.28;62.55;101032.88;5008779;28;19964;-69
2022/08/30 06:53:04;;;;;;;;;;;;;;;15.34;62.30;101031.59;5008706;28;19971;-69
2022/08/30 06:56:08;;;;;;;;;;;;;;;15.46;62.19;101035.25;5008677;28;20088;-69
2022/08/30 06:59:12;;;;;;;;;;;;;;;15.56;62.09;101031.91;5007706;28;19920;-69
2022/08/30 07:02:15;;;;;;;;;;;;;;;15.69;61.84;101036.41;5012603;28;19929;-69
2022/08/30 07:05:21;;;;;;;;;;;;;;;15.81;61.71;101025.06;5028624;28;20428;-69
2022/08/30 07:08:25;;;;;;;;;;;;;;;15.89;61.61;101025.41;5028174;28;19928;-69
2022/08/30 07:11:30;;;;;;;;;;;;;;;16.01;61.55;101016.66;5028600;28;19971;-69
2022/08/30 07:14:34;;;;;;;;;;;;;;;16.18;61.29;101018.19;5032298;28;19963;-69
2022/08/30 07:21:05;;;;;;;;;;;;;;;16.41;61.25;101023.69;5032241;28;19927;-69
2022/08/30 07:24:09;;;;;;;;;;;;;;;16.62;60.44;101026.63;5033047;28;20440;-69
2022/08/30 07:27:13;;;;;;;;;;;;;;;16.85;60.33;101022.41;5031871;28;19986;-69
2022/08/30 07:30:16;;;;;;;;;;;;;;;16.96;60.27;101018.03;5031965;28;19924;-69
2022/08/30 07:33:20;;;;;;;;;;;;;;;17.10;60.41;101022.34;5031162;28;20675;-70
2022/08/30 07:36:23;;;;;;;;;;;;;;;17.28;60.15;101021.97;5031710;28;20304;-69
2022/08/30 07:39:26;;;;;;;;;;;;;;;17.47;60.39;101024.97;5031844;28;20016;-70
2022/08/30 07:42:29;;;;;;;;;;;;;;;17.63;60.17;101020.22;5031993;28;20447;-69
2022/08/30 07:45:32;;;;;;;;;;;;;;;17.76;60.10;101020.16;5031745;28;19923;-70
2022/08/30 07:48:35;;;;;;;;;;;;;;;17.86;59.71;101025.63;5031902;28;19924;-69
2022/08/30 07:51:39;;;;;;;;;;;;;;;17.94;59.05;101017.16;5031394;28;20054;-70
2022/08/30 07:54:42;;;;;;;;;;;;;;;18.04;59.25;101023.41;5031426;28;20336;-72
2022/08/30 07:57:46;;;;;;;;;;;;;;;18.10;58.49;101013.22;5030810;28;20484;-71
2022/08/30 08:00:53;;;;;;;;;;;;;;;18.18;58.72;101015.25;5031279;28;19929;-69
2022/08/30 08:04:00;;;;;;;;;;;;;;;18.32;58.37;101007.13;5031422;28;20002;-69
2022/08/30 08:07:04;;;;;;;;;;;;;;;18.44;58.20;101015.94;5030913;28;19924;-69
2022/08/30 08:10:08;;;;;;;;;;;;;;;18.59;58.11;101013.88;5030148;28;20447;-70
2022/08/30 08:13:12;;;;;;;;;;;;;;;18.67;57.35;101016.78;5029035;28;20072;-69
2022/08/30 08:16:15;;;;;;;;;;;;;;;18.72;57.56;101013.75;5025137;28;19994;-70
2022/08/30 08:19:19;;;;;;;;;;;;;;;18.81;56.41;101023.66;5008289;28;19923;-69
2022/08/30 08:22:22;;;;;;;;;;;;;;;18.90;56.56;101019.44;5011323;28;19929;-70
2022/08/30 08:25:26;;;;;;;;;;;;;;;19.00;55.94;101020.38;5011094;28;19944;-70
2022/08/30 08:28:29;;;;;;;;;;;;;;;19.09;56.00;101018.81;5008560;28;20056;-70
2022/08/30 08:31:32;;;;;;;;;;;;;;;19.18;55.79;101016.28;5008572;28;19924;-71
2022/08/30 08:34:36;;;;;;;;;;;;;;;19.28;55.53;101017.19;5008811;28;20232;-70
2022/08/30 08:37:40;;;;;;;;;;;;;;;19.38;55.00;101011.16;5008916;28;19928;-69
2022/08/30 08:40:58;;;;;;;;;;;;;;;19.62;54.67;101014.47;5008538;28;19929;-70
2022/08/30 08:44:14;;;;;;;;;;;;;;;19.67;54.92;101012.28;5020886;28;19940;-70
2022/08/30 08:47:27;;;;;;;;;;;;;;;19.71;54.00;101013.69;5020828;28;19924;-70
2022/08/30 08:50:31;;;;;;;;;;;;;;;19.92;54.00;101010.25;5010194;28;20360;-71
2022/08/30 08:53:35;;;;;;;;;;;;;;;20.03;53.39;101007.50;5010101;28;19932;-71
2022/08/30 08:56:39;;;;;;;;;;;;;;;20.09;53.12;101001.69;5007849;28;19975;-71
2022/08/30 08:59:47;;;;;;;;;;;;;;;20.26;53.08;100991.44;5009288;28;20293;-71
2022/08/30 09:02:58;;;;;;;;;;;;;;;20.27;52.53;100993.97;5009585;28;19977;-71
2022/08/30 09:06:06;;;;;;;;;;;;;;;20.33;52.21;100985.47;5008730;28;19924;-70
2022/08/30 09:09:09;;;;;;;;;;;;;;;20.56;52.17;100988.84;5009164;28;19925;-70
2022/08/30 09:12:14;;;;;;;;;;;;;;;20.65;52.07;100982.72;5009330;28;20393;-72
2022/08/30 09:15:20;;;;;;;;;;;;;;;20.69;51.36;100977.13;5009671;28;20431;-69
2022/08/30 09:18:40;;;;;;;;;;;;;;;20.77;50.86;100969.31;5009697;28;19924;-71
2022/08/30 09:21:44;;;;;;;;;;;;;;;21.05;50.44;100970.38;5008862;28;20027;-71
2022/08/30 09:24:59;;;;;;;;;;;;;;;21.23;49.65;100965.22;5009235;28;19924;-70
2022/08/30 09:28:17;;;;;;;;;;;;;;;21.24;48.98;100957.09;5008769;28;19925;-70
2022/08/30 09:31:20;;;;;;;;;;;;;;;21.28;49.22;100947.88;5009044;28;19936;-70
2022/08/30 09:34:24;;;;;;;;;;;;;;;21.51;49.13;100948.47;5008359;28;19932;-70
2022/08/30 09:37:36;;;;;;;;;;;;;;;21.52;48.77;100941.31;5008855;28;20399;-70
2022/08/30 09:40:47;;;;;;;;;;;;;;;21.53;47.81;100935.00;5008047;28;19928;-71
2022/08/30 09:44:06;;;;;;;;;;;;;;;21.92;46.11;100938.47;5008728;28;20355;-70
2022/08/30 09:47:42;;;;;;;;;;;;;;;21.97;45.76;100930.03;5009710;28;19916;-70
2022/08/30 09:50:47;;;;;;;;;;;;;;;22.17;45.19;100933.50;4991121;28;19927;-70
2022/08/30 09:54:06;;;;;;;;;;;;;;;22.12;45.45;100933.94;5008190;28;19968;-70
2022/08/30 09:57:35;;;;;;;;;;;;;;;22.32;44.80;100929.38;5009267;28;20319;-70
2022/08/30 10:00:50;;;;;;;;;;;;;;;22.24;45.62;100919.47;5009490;28;19987;-70
2022/08/30 10:04:32;;;;;;;;;;;;;;;22.40;44.56;100928.66;5010213;28;20519;-70
2022/08/30 10:07:38;;;;;;;;;;;;;;;22.51;44.29;100912.47;4948860;28;19924;-71
2022/08/30 10:10:47;;;;;;;;;;;;;;;22.55;44.17;100905.03;4948389;28;19925;-70
2022/08/30 10:13:55;;;;;;;;;;;;;;;22.48;44.60;100905.63;5008737;28;19924;-70
2022/08/30 10:17:02;;;;;;;;;;;;;;;22.68;44.75;100905.50;5012269;28;19927;-70
2022/08/30 10:20:24;;;;;;;;;;;;;;;22.77;44.79;100893.09;5029063;28;20383;-70
2022/08/30 10:23:32;;;;;;;;;;;;;;;23.01;43.73;100893.41;5027938;28;19982;-70
2022/08/30 10:26:38;;;;;;;;;;;;;;;23.00;42.95;100901.53;5028358;28;19927;-70
2022/08/30 10:29:45;;;;;;;;;;;;;;;22.88;43.18;100896.41;5028497;28;19924;-70
2022/08/30 10:33:07;;;;;;;;;;;;;;;23.08;42.34;100901.63;5028468;28;19991;-70
2022/08/30 10:36:12;;;;;;;;;;;;;;;23.06;42.83;100885.75;5027934;28;19928;-71
2022/08/30 10:39:22;;;;;;;;;;;;;;;23.07;42.80;100890.13;5028077;28;19924;-70
2022/08/30 10:42:46;;;;;;;;;;;;;;;23.37;42.41;100880.88;5028216;28;19936;-71
2022/08/30 10:45:52;;;;;;;;;;;;;;;23.76;40.77;100874.34;5028339;28;20372;-71
2022/08/30 10:48:57;;;;;;;;;;;;;;;23.94;39.57;100874.28;5030286;28;20349;-71
2022/08/30 10:52:01;;;;;;;;;;;;;;;23.83;39.54;100878.03;5030320;28;19927;-71
2022/08/30 10:55:10;;;;;;;;;;;;;;;23.83;40.58;100880.72;5030501;28;19924;-71
2022/08/30 10:58:17;;;;;;;;;;;;;;;23.87;39.81;100877.59;5031417;28;19943;-70
2022/08/30 11:01:24;;;;;;;;;;;;;;;24.21;39.43;100873.22;5031070;28;19932;-71
2022/08/30 11:04:39;;;;;;;;;;;;;;;24.53;37.77;100865.34;5031692;28;19940;-72
2022/08/30 11:08:01;;;;;;;;;;;;;;;24.40;37.37;100866.78;5024578;28;19924;-72
2022/08/30 11:11:05;;;;;;;;;;;;;;;24.54;36.62;100867.06;5012044;28;19967;-72
2022/08/30 11:14:12;;;;;;;;;;;;;;;24.71;36.25;100859.91;5011467;28;19980;-72
2022/08/30 11:17:21;;;;;;;;;;;;;;;24.76;36.24;100862.06;5012661;28;19976;-71
2022/08/30 11:20:34;;;;;;;;;;;;;;;24.70;36.97;100860.91;5020590;28;19968;-64
2022/08/30 11:23:38;;;;;;;;;;;;;;;24.61;36.81;100853.88;5032224;28;20004;-63
2022/08/30 11:26:44;;;;;;;;;;;;;;;24.54;37.68;100855.53;5032031;28;19923;-64
2022/08/30 11:29:48;;;;;;;;;;;;;;;24.41;36.93;100852.41;5031902;28;19916;-63
2022/08/30 11:33:09;;;;;;;;;;;;;;;24.49;37.68;100844.47;5031804;28;20285;-62
2022/08/30 11:36:24;;;;;;;;;;;;;;;24.79;36.78;100835.00;5032484;28;19963;-62
2022/08/30 11:39:42;;;;;;;;;;;;;;;24.78;36.18;100844.84;5030426;28;19979;-63
2022/08/30 11:42:47;;;;;;;;;;;;;;;24.87;35.45;100837.69;5030305;28;20293;-63
2022/08/30 11:45:53;;;;;;;;;;;;;;;24.89;35.06;100840.19;5030684;28;19928;-65
2022/08/30 11:49:22;;;;;;;;;;;;;;;24.83;36.11;100845.22;5030322;28;19924;-63
2022/08/30 11:52:40;;;;;;;;;;;;;;;25.20;34.68;100838.56;5031216;28;19947;-63
2022/08/30 11:56:05;;;;;;;;;;;;;;;25.32;37.05;100828.34;5030495;28;19962;-64
2022/08/30 11:59:23;;;;;;;;;;;;;;;25.40;35.23;100824.81;5029582;28;19971;-65
2022/08/30 12:02:39;;;;;;;;;;;;;;;25.39;35.71;100823.16;5030516;28;19932;-64
2022/08/30 12:05:51;;;;;;;;;;;;;;;25.33;34.36;100821.16;5010405;28;20389;-64
2022/08/30 12:08:54;;;;;;;;;;;;;;;25.73;33.42;100818.41;5007916;28;19971;-70
2022/08/30 12:11:58;;;;;;;;;;;;;;;25.79;33.57;100816.06;5010679;28;19964;-65
2022/08/30 12:15:01;;;;;;;;;;;;;;;25.95;32.79;100810.66;5006199;28;19925;-65
2022/08/30 12:21:31;;;;;;;;;;;;;;;26.15;33.21;100811.06;4990339;28;19936;-66
2022/08/30 12:24:38;;;;;;;;;;;;;;;26.44;33.18;100810.41;4990323;28;19980;-65
2022/08/30 12:27:42;;;;;;;;;;;;;;;26.55;32.13;100807.38;4991021;28;19928;-65
2022/08/30 12:30:45;;;;;;;;;;;;;;;26.72;31.70;100807.25;5000675;28;19924;-65
2022/08/30 12:34:00;;;;;;;;;;;;;;;26.76;30.29;100797.81;5011477;28;19929;-65
2022/08/30 12:37:03;;;;;;;;;;;;;;;27.07;30.00;100798.56;5011070;28;20382;-65
2022/08/30 12:40:07;;;;;;;;;;;;;;;27.50;29.44;100788.09;5008716;28;19928;-65
2022/08/30 12:43:20;;;;;;;;;;;;;;;27.73;29.71;100782.66;5009710;28;19987;-65
2022/08/30 12:46:24;;;;;;;;;;;;;;;28.19;29.12;100785.13;5008526;28;20288;-65
2022/08/30 12:49:30;;;;;;;;;;;;;;;28.19;29.34;100779.72;5009076;28;20245;-65
2022/08/30 12:52:37;;;;;;;;;;;;;;;28.78;28.58;100778.72;5009243;28;19999;-66
2022/08/30 12:55:50;;;;;;;;;;;;;;;28.76;27.41;100779.94;5009737;28;19924;-65
2022/08/30 12:58:54;;;;;;;;;;;;;;;28.95;30.25;100774.72;5009595;28;19924;-66
2022/08/30 13:02:31;;;;;;;;;;;;;;;29.30;26.94;100772.13;5009196;28;19932;-65
2022/08/30 13:05:41;;;;;;;;;;;;;;;29.77;26.66;100772.41;4991398;28;20350;-65
2022/08/30 13:08:45;;;;;;;;;;;;;;;30.01;26.13;100765.66;5009731;28;19968;-65
2022/08/30 13:11:50;;;;;;;;;;;;;;;29.42;26.04;100764.34;5008706;28;19924;-66
2022/08/30 13:15:15;;;;;;;;;;;;;;;29.36;25.92;100749.78;5010488;28;19924;-65
2022/08/30 13:18:26;;;;;;;;;;;;;;;29.77;26.49;100746.31;5009709;28;20007;-66
2022/08/30 13:21:31;;;;;;;;;;;;;;;30.46;26.25;100750.66;5008721;28;19940;-64
2022/08/30 13:24:34;;;;;;;;;;;;;;;30.82;25.64;100744.06;5009136;28;20395;-63
2022/08/30 13:27:38;;;;;;;;;;;;;;;30.11;25.47;100739.97;5009218;28;19979;-65
2022/08/30 13:30:41;;;;;;;;;;;;;;;30.43;24.81;100737.59;5008972;28;19927;-65
2022/08/30 13:33:45;;;;;;;;;;;;;;;31.47;24.72;100731.53;5008827;28;19929;-64
2022/08/30 13:36:50;;;;;;;;;;;;;;;32.40;23.19;100736.50;5009358;28;19980;-65
2022/08/30 13:39:53;;;;;;;;;;;;;;;34.09;22.56;100732.78;5009180;28;19928;-64
2022/08/30 13:42:56;;;;;;;;;;;;;;;36.69;17.27;100721.28;5009945;28;19929;-63
2022/08/30 13:46:01;;;;;;;;;;;;;;;39.04;16.07;100719.31;5009241;28;20345;-64
2022/08/30 13:49:06;;;;;;;;;;;;;;;38.99;15.33;100705.59;5008386;28;20003;-64
2022/08/30 13:52:10;;;;;;;;;;;;;;;41.08;13.91;100698.88;5008724;28;20108;-63
2022/08/30 13:55:14;;;;;;;;;;;;;;;44.31;12.70;100694.63;5008996;28;19924;-64
2022/08/30 13:58:18;;;;;;;;;;;;;;;45.21;11.12;100695.16;5025342;28;20301;-64
2022/08/30 14:01:22;;;;;;;;;;;;;;;44.46;11.12;100688.84;5028553;28;20279;-63
2022/08/30 14:04:25;;;;;;;;;;;;;;;43.50;12.51;100691.16;5027738;28;19972;-64
2022/08/30 14:07:29;;;;;;;;;;;;;;;44.51;11.38;100682.41;5028441;28;19970;-63
2022/08/30 14:10:33;;;;;;;;;;;;;;;44.52;11.25;100684.88;5010878;28;20024;-63
2022/08/30 14:13:37;;;;;;;;;;;;;;;45.59;9.92;100684.69;5009474;28;20388;-64
2022/08/30 14:16:42;;;;;;;;;;;;;;;45.44;10.76;100674.78;5008734;28;20371;-63
2022/08/30 14:19:45;;;;;;;;;;;;;;;45.99;10.19;100678.53;5011548;28;20005;-64
2022/08/30 14:22:49;;;;;;;;;;;;;;;44.33;10.82;100673.13;5011343;28;19929;-63
2022/08/30 14:25:55;;;;;;;;;;;;;;;45.25;10.58;100671.34;5012281;28;19988;-63
2022/08/30 14:29:00;;;;;;;;;;;;;;;39.75;13.83;100668.75;5011701;28;19924;-63
2022/08/30 14:32:04;;;;;;;;;;;;;;;36.06;16.88;100682.41;5007681;28;19933;-64
2022/08/30 14:35:08;;;;;;;;;;;;;;;42.07;13.01;100676.94;5002957;28;20048;-65
2022/08/30 14:38:11;;;;;;;;;;;;;;;45.51;10.03;100654.25;5010939;28;19924;-64
2022/08/30 14:41:14;;;;;;;;;;;;;;;44.08;10.88;100660.56;5011490;28;19967;-64
2022/08/30 14:44:19;;;;;;;;;;;;;;;43.99;11.19;100654.09;5009572;28;20403;-64
2022/08/30 14:47:23;;;;;;;;;;;;;;;45.71;10.37;100650.97;5008355;28;19967;-63
2022/08/30 14:50:26;;;;;;;;;;;;;;;45.61;9.31;100652.06;5007439;28;19975;-64
2022/08/30 14:53:30;;;;;;;;;;;;;;;44.27;10.49;100643.97;5009164;28;20483;-64
2022/08/30 14:56:33;;;;;;;;;;;;;;;43.87;10.80;100647.06;5009035;28;19936;-64
2022/08/30 14:59:36;;;;;;;;;;;;;;;45.81;9.75;100636.09;5008817;28;19927;-63
2022/08/30 15:02:46;;;;;;;;;;;;;;;43.78;11.38;100637.03;5007226;28;20028;-66
2022/08/30 15:05:51;;;;;;;;;;;;;;;43.29;11.24;100630.88;5008767;28;19925;-65
2022/08/30 15:08:55;;;;;;;;;;;;;;;42.44;12.05;100628.81;5007578;28;19925;-64
2022/08/30 15:12:01;;;;;;;;;;;;;;;40.35;14.43;100625.25;5008992;28;19992;-65
2022/08/30 15:15:05;;;;;;;;;;;;;;;43.17;12.54;100613.97;5008681;28;19923;-64
2022/08/30 15:18:11;;;;;;;;;;;;;;;44.20;10.69;100622.31;5008797;28;20437;-65
2022/08/30 15:21:21;;;;;;;;;;;;;;;41.82;11.54;100615.59;5015091;28;19928;-65
2022/08/30 15:24:24;;;;;;;;;;;;;;;42.80;12.68;100617.47;5028470;28;19970;-66
2022/08/30 15:27:29;;;;;;;;;;;;;;;42.06;13.08;100614.88;5028127;28;20059;-65
2022/08/30 15:30:32;;;;;;;;;;;;;;;43.68;11.01;100601.41;5022281;28;19924;-65
2022/08/30 15:33:36;;;;;;;;;;;;;;;42.87;12.00;100609.69;5014185;28;20056;-65
2022/08/30 15:36:42;;;;;;;;;;;;;;;42.18;11.38;100603.50;5011809;28;20024;-64
2022/08/30 15:39:45;;;;;;;;;;;;;;;42.32;12.30;100606.44;5013021;28;20293;-66
2022/08/30 15:42:48;;;;;;;;;;;;;;;43.17;12.04;100601.06;5019767;28;20396;-64
2022/08/30 15:45:52;;;;;;;;;;;;;;;43.37;11.53;100599.94;5030402;28;19928;-64
2022/08/30 15:49:08;;;;;;;;;;;;;;;43.22;11.94;100591.09;5009446;28;19929;-65
2022/08/30 15:52:11;;;;;;;;;;;;;;;41.68;13.17;100597.31;5011863;28;19971;-65
2022/08/30 15:55:15;;;;;;;;;;;;;;;38.03;14.31;100590.97;5011971;28;20345;-65
2022/08/30 15:58:18;;;;;;;;;;;;;;;38.11;16.04;100593.25;5016418;28;19924;-65
2022/08/30 16:01:23;;;;;;;;;;;;;;;37.77;15.42;100589.91;4992100;28;19929;-66
2022/08/30 16:04:26;;;;;;;;;;;;;;;37.44;15.36;100595.28;4992378;28;19925;-65